createdAt,value
2019-06-20T00:01:10.820Z,98339.84
2019-06-20T00:03:37.623Z,98346.53
2019-06-20T00:06:04.904Z,98351.49
2019-06-20T00:08:31.704Z,98341.13
2019-06-20T00:10:58.623Z,98341.02
2019-06-20T00:13:25.357Z,98368.42
2019-06-20T00:15:52.171Z,98337.55
2019-06-20T00:18:19.292Z,98362.21
2019-06-20T00:20:47.036Z,98376.30
2019-06-20T00:23:14.813Z,98370.94
2019-06-20T00:25:42.552Z,98365.92
2019-06-20T00:28:10.483Z,98380.39
2019-06-20T00:30:38.176Z,98377.67
2019-06-20T00:33:05.633Z,98378.70
2019-06-20T00:35:32.873Z,98380.31
2019-06-20T00:38:00.472Z,98381.64
2019-06-20T00:40:27.944Z,98341.23
2019-06-20T00:42:55.530Z,98382.70
2019-06-20T00:45:23.959Z,98373.75
2019-06-20T00:47:51.547Z,98365.80
2019-06-20T00:50:19.364Z,98351.30
2019-06-20T00:52:47.224Z,98346.87
2019-06-20T00:55:14.778Z,98348.66
2019-06-20T00:57:42.511Z,98361.98
2019-06-20T01:00:10.269Z,98371.08
2019-06-20T01:02:37.519Z,98354.22
2019-06-20T01:05:05.459Z,98352.64
2019-06-20T01:07:32.316Z,98368.19
2019-06-20T01:09:59.832Z,98376.20
2019-06-20T01:12:27.812Z,98363.17
2019-06-20T01:14:55.250Z,98362.16
2019-06-20T01:17:22.561Z,98366.40
2019-06-20T01:19:50.598Z,98382.12
2019-06-20T01:22:18.022Z,98374.39
2019-06-20T01:24:45.337Z,98377.11
2019-06-20T01:27:12.631Z,98369.37
2019-06-20T01:29:40.616Z,98353.17
2019-06-20T01:32:08.215Z,98364.56
2019-06-20T01:34:35.845Z,98370.30
2019-06-20T01:37:03.677Z,98371.52
2019-06-20T01:39:31.835Z,98388.46
2019-06-20T01:41:59.428Z,98396.94
2019-06-20T01:44:27.152Z,98396.09
2019-06-20T01:46:54.743Z,98395.23
2019-06-20T01:49:22.345Z,98380.91
2019-06-20T01:51:49.730Z,98400.48
2019-06-20T01:54:17.386Z,98385.37
2019-06-20T01:56:44.984Z,98395.73
2019-06-20T01:59:13.073Z,98406.55
2019-06-20T02:01:40.563Z,98416.23
2019-06-20T02:04:08.417Z,98426.11
2019-06-20T02:06:35.838Z,98435.14
2019-06-20T02:09:05.893Z,98427.32
2019-06-20T02:11:33.575Z,98244.57
2019-06-20T02:14:07.251Z,98439.00
2019-06-20T02:16:30.640Z,98429.86
2019-06-20T02:18:58.434Z,98434.20
2019-06-20T02:21:26.450Z,98428.65
2019-06-20T02:23:53.943Z,98426.47
2019-06-20T02:26:20.752Z,98423.20
2019-06-20T02:28:47.509Z,98427.81
2019-06-20T02:31:14.577Z,98426.72
2019-06-20T02:33:41.985Z,98430.95
2019-06-20T02:36:09.404Z,98446.58
2019-06-20T02:38:37.405Z,98432.45
2019-06-20T02:41:04.273Z,98428.98
2019-06-20T02:43:31.603Z,98417.00
2019-06-20T02:45:59.300Z,98423.33
2019-06-20T02:48:26.997Z,98418.41
2019-06-20T02:50:54.561Z,98425.39
2019-06-20T02:53:22.257Z,98428.22
2019-06-20T02:55:49.771Z,98423.13
2019-06-20T02:58:17.923Z,98423.58
2019-06-20T03:00:51.931Z,98431.41
2019-06-20T03:03:19.057Z,98449.11
2019-06-20T03:05:46.557Z,98489.30
2019-06-20T03:08:14.472Z,98502.78
2019-06-20T03:10:41.995Z,98529.48
2019-06-20T03:13:09.707Z,98356.03
2019-06-20T03:15:37.045Z,98543.23
2019-06-20T03:18:04.318Z,98540.20
2019-06-20T03:20:32.122Z,98539.55
2019-06-20T03:22:59.052Z,98557.05
2019-06-20T03:25:27.052Z,98555.14
2019-06-20T03:27:54.302Z,98571.67
2019-06-20T03:30:21.161Z,98589.22
2019-06-20T03:32:49.242Z,98592.52
2019-06-20T03:35:16.918Z,98604.53
2019-06-20T03:37:44.382Z,98609.84
2019-06-20T03:40:11.630Z,98601.94
2019-06-20T03:42:39.916Z,98601.08
2019-06-20T03:45:07.688Z,98591.54
2019-06-20T03:47:35.344Z,98584.78
2019-06-20T03:50:04.236Z,98594.48
2019-06-20T03:52:31.533Z,98592.34
2019-06-20T03:54:59.643Z,98582.25
2019-06-20T03:57:26.900Z,98585.97
2019-06-20T03:59:53.752Z,98590.66
2019-06-20T04:02:21.337Z,98601.20
2019-06-20T04:04:48.972Z,98613.12
2019-06-20T04:07:16.602Z,98614.66
2019-06-20T04:09:44.128Z,98613.45
2019-06-20T04:12:11.971Z,98624.83
2019-06-20T04:14:39.874Z,98628.42
2019-06-20T04:17:07.315Z,98631.33
2019-06-20T04:19:35.418Z,98577.86
2019-06-20T04:22:02.663Z,98618.22
2019-06-20T04:24:30.354Z,98610.61
2019-06-20T04:26:57.062Z,98608.34
2019-06-20T04:29:24.081Z,98605.95
2019-06-20T04:31:51.509Z,98606.37
2019-06-20T04:34:18.843Z,98599.42
2019-06-20T04:36:48.142Z,98603.95
2019-06-20T04:39:19.630Z,98586.70
2019-06-20T04:41:45.706Z,98583.78
2019-06-20T04:44:13.555Z,98587.21
2019-06-20T04:46:45.777Z,98586.11
2019-06-20T04:49:13.285Z,98578.16
2019-06-20T04:51:40.865Z,98595.60
2019-06-20T04:54:08.819Z,98592.44
2019-06-20T04:56:36.202Z,98580.81
2019-06-20T04:59:03.965Z,98560.06
2019-06-20T05:01:31.644Z,98553.52
2019-06-20T05:03:59.449Z,98549.58
2019-06-20T05:06:26.068Z,98548.56
2019-06-20T05:08:53.404Z,98563.51
2019-06-20T05:11:21.190Z,98559.10
2019-06-20T05:13:48.233Z,98552.67
2019-06-20T05:16:15.211Z,98545.81
2019-06-20T05:18:41.996Z,98540.70
2019-06-20T05:21:08.935Z,98389.54
2019-06-20T05:23:36.909Z,98550.75
2019-06-20T05:26:04.447Z,98559.57
2019-06-20T05:28:32.121Z,98570.86
2019-06-20T05:30:59.033Z,98573.78
2019-06-20T05:33:25.894Z,98572.14
2019-06-20T05:35:53.363Z,98571.76
2019-06-20T05:38:21.204Z,98569.27
2019-06-20T05:40:48.517Z,98572.47
2019-06-20T05:43:15.897Z,98579.48
2019-06-20T05:45:47.595Z,98590.72
2019-06-20T05:48:13.275Z,98577.13
2019-06-20T05:50:40.684Z,98584.69
2019-06-20T05:53:09.034Z,98589.63
2019-06-20T05:55:36.749Z,98609.91
2019-06-20T05:58:04.263Z,98489.23
2019-06-20T06:00:32.011Z,98616.56
2019-06-20T06:02:59.449Z,98610.06
2019-06-20T06:05:27.519Z,98610.06
2019-06-20T06:07:55.024Z,98612.80
2019-06-20T06:10:23.273Z,98614.00
2019-06-20T06:12:50.235Z,98603.64
2019-06-20T06:15:17.370Z,98599.31
2019-06-20T06:17:44.210Z,98596.93
2019-06-20T06:20:11.239Z,98602.58
2019-06-20T06:22:39.852Z,98592.61
2019-06-20T06:25:07.186Z,98593.66
2019-06-20T06:27:34.751Z,98601.88
2019-06-20T06:30:03.402Z,98594.74
2019-06-20T06:32:40.077Z,98606.95
2019-06-20T06:35:00.260Z,98604.34
2019-06-20T06:37:27.943Z,98432.61
2019-06-20T06:39:55.500Z,98605.91
2019-06-20T06:42:22.348Z,98591.69
2019-06-20T06:44:50.214Z,98590.67
2019-06-20T06:47:18.318Z,98589.70
2019-06-20T06:49:45.957Z,98594.30
2019-06-20T06:52:13.509Z,98596.32
2019-06-20T06:54:40.549Z,98299.27
2019-06-20T06:57:08.086Z,98599.80
2019-06-20T06:59:35.497Z,98596.24
2019-06-20T07:02:03.213Z,98599.46
2019-06-20T07:04:31.239Z,98596.00
2019-06-20T07:06:58.805Z,98430.05
2019-06-20T07:09:25.944Z,98599.71
2019-06-20T07:11:53.716Z,98596.38
2019-06-20T07:14:21.518Z,98583.14
2019-06-20T07:16:59.920Z,98590.12
2019-06-20T07:19:17.945Z,98611.98
2019-06-20T07:21:45.823Z,98596.98
2019-06-20T07:24:13.914Z,98590.34
2019-06-20T07:26:41.494Z,98590.89
2019-06-20T07:29:08.238Z,98593.69
2019-06-20T07:31:35.257Z,98590.78
2019-06-20T07:34:03.066Z,98584.88
2019-06-20T07:36:30.637Z,98592.66
2019-06-20T07:38:58.337Z,98592.48
2019-06-20T07:41:25.658Z,98586.79
2019-06-20T07:43:53.111Z,98589.70
2019-06-20T07:46:20.019Z,98590.66
2019-06-20T07:48:47.834Z,98606.44
2019-06-20T07:51:15.150Z,98597.23
2019-06-20T07:53:41.993Z,98604.48
2019-06-20T07:56:09.620Z,98608.19
2019-06-20T07:58:37.368Z,98601.17
2019-06-20T08:01:04.822Z,98605.15
2019-06-20T08:03:32.247Z,98610.28
2019-06-20T08:06:00.227Z,98613.80
2019-06-20T08:08:27.857Z,98466.44
2019-06-20T08:10:55.432Z,98614.16
2019-06-20T08:13:22.976Z,98614.37
2019-06-20T08:15:50.695Z,98620.86
2019-06-20T08:18:18.600Z,98616.98
2019-06-20T08:20:46.507Z,98623.27
2019-06-20T08:23:14.104Z,98610.14
2019-06-20T08:25:42.006Z,98613.23
2019-06-20T08:28:08.948Z,98618.91
2019-06-20T08:30:36.844Z,98613.05
2019-06-20T08:33:11.247Z,98612.39
2019-06-20T08:35:33.808Z,98627.11
2019-06-20T08:38:03.472Z,98625.20
2019-06-20T08:40:33.102Z,98621.03
2019-06-20T08:43:02.026Z,98620.60
2019-06-20T08:45:31.399Z,98624.93
2019-06-20T08:48:00.076Z,98615.38
2019-06-20T08:50:27.836Z,98616.68
2019-06-20T08:52:57.597Z,98618.80
2019-06-20T08:55:25.302Z,98616.06
2019-06-20T08:57:55.707Z,98626.34
2019-06-20T09:00:23.026Z,98464.31
2019-06-20T09:02:50.424Z,98616.53
2019-06-20T09:05:17.677Z,98621.44
2019-06-20T09:07:44.942Z,98613.31
2019-06-20T09:10:12.822Z,98622.47
2019-06-20T09:12:40.611Z,98617.48
2019-06-20T09:15:08.411Z,98526.34
2019-06-20T09:17:36.072Z,98618.23
2019-06-20T09:20:05.114Z,98619.12
2019-06-20T09:22:33.297Z,98621.83
2019-06-20T09:25:01.000Z,98611.43
2019-06-20T09:27:28.469Z,98619.30
2019-06-20T09:29:56.240Z,98616.84
2019-06-20T09:32:23.455Z,98621.86
2019-06-20T09:34:52.996Z,98621.25
2019-06-20T09:37:20.976Z,98630.15
2019-06-20T09:39:48.836Z,98632.73
2019-06-20T09:42:16.093Z,98626.11
2019-06-20T09:44:43.683Z,98624.38
2019-06-20T09:47:11.893Z,98624.56
2019-06-20T09:49:38.847Z,98624.98
2019-06-20T09:52:06.463Z,98615.84
2019-06-20T09:54:34.031Z,98598.98
2019-06-20T09:57:01.278Z,98619.42
2019-06-20T09:59:28.162Z,98632.14
2019-06-20T10:01:56.381Z,98630.91
2019-06-20T10:04:23.756Z,98639.82
2019-06-20T10:06:52.304Z,98635.27
2019-06-20T10:09:19.239Z,98645.19
2019-06-20T10:11:47.925Z,98636.91
2019-06-20T10:14:15.250Z,98635.44
2019-06-20T10:16:47.511Z,98637.19
2019-06-20T10:19:13.373Z,98638.20
2019-06-20T10:21:40.226Z,98495.45
2019-06-20T10:24:07.616Z,98636.89
2019-06-20T10:26:37.638Z,98635.34
2019-06-20T10:29:04.247Z,98632.09
2019-06-20T10:31:31.305Z,98637.82
2019-06-20T10:33:58.893Z,98635.31
2019-06-20T10:36:26.138Z,98643.02
2019-06-20T10:38:53.406Z,98647.69
2019-06-20T10:41:20.258Z,98640.80
2019-06-20T10:43:47.938Z,98649.02
2019-06-20T10:46:14.967Z,98643.20
2019-06-20T10:48:44.210Z,98659.87
2019-06-20T10:51:29.773Z,98649.34
2019-06-20T10:53:57.038Z,98646.02
2019-06-20T10:56:24.256Z,98488.16
2019-06-20T10:58:51.479Z,98652.80
2019-06-20T11:01:18.320Z,98643.55
2019-06-20T11:03:46.106Z,98649.78
2019-06-20T11:06:12.962Z,98655.25
2019-06-20T11:08:40.635Z,98656.03
2019-06-20T11:11:08.982Z,98651.92
2019-06-20T11:13:35.997Z,98652.58
2019-06-20T11:16:03.673Z,98656.64
2019-06-20T11:18:30.885Z,98524.96
2019-06-20T11:20:58.039Z,98661.16
2019-06-20T11:23:24.787Z,98658.85
2019-06-20T11:25:51.618Z,98520.81
2019-06-20T11:28:19.956Z,98663.77
2019-06-20T11:30:58.072Z,98671.88
2019-06-20T11:33:15.670Z,98660.34
2019-06-20T11:35:43.457Z,98655.72
2019-06-20T11:38:10.482Z,98651.79
2019-06-20T11:40:38.265Z,98660.09
2019-06-20T11:43:06.570Z,98651.34
2019-06-20T11:45:37.343Z,98649.28
2019-06-20T11:48:05.731Z,98649.36
2019-06-20T11:50:34.381Z,98647.61
2019-06-20T11:53:01.634Z,98653.36
2019-06-20T11:55:29.314Z,98642.32
2019-06-20T11:57:56.252Z,98647.46
2019-06-20T12:00:23.393Z,98646.45
2019-06-20T12:02:50.398Z,98645.47
2019-06-20T12:05:17.640Z,98471.88
2019-06-20T12:07:45.605Z,98647.32
2019-06-20T12:10:13.026Z,98646.34
2019-06-20T12:12:41.007Z,98642.77
2019-06-20T12:15:08.856Z,98644.03
2019-06-20T12:17:35.836Z,98639.48
2019-06-20T12:20:05.421Z,98640.09
2019-06-20T12:22:32.259Z,98637.58
2019-06-20T12:24:59.096Z,98641.89
2019-06-20T12:27:25.836Z,98515.20
2019-06-20T12:29:53.185Z,98625.29
2019-06-20T12:32:21.286Z,98644.41
2019-06-20T12:34:49.091Z,98630.99
2019-06-20T12:37:16.378Z,98626.16
2019-06-20T12:39:44.432Z,98629.84
2019-06-20T12:42:11.925Z,98627.92
2019-06-20T12:44:40.092Z,98630.03
2019-06-20T12:47:07.682Z,98632.66
2019-06-20T12:49:34.777Z,98630.47
2019-06-20T12:52:02.133Z,98624.13
2019-06-20T12:54:30.304Z,98619.29
2019-06-20T12:56:57.348Z,98620.55
2019-06-20T12:59:24.072Z,98616.83
2019-06-20T13:01:51.242Z,98613.46
2019-06-20T13:04:18.381Z,98607.50
2019-06-20T13:06:45.199Z,98602.55
2019-06-20T13:09:12.260Z,98609.58
2019-06-20T13:11:40.661Z,98610.09
2019-06-20T13:14:07.534Z,98601.48
2019-06-20T13:16:34.617Z,98609.70
2019-06-20T13:19:01.304Z,98492.19
2019-06-20T13:21:28.312Z,98607.36
2019-06-20T13:23:55.026Z,98593.73
2019-06-20T13:26:23.016Z,98598.91
2019-06-20T13:29:03.520Z,98589.97
2019-06-20T13:31:18.609Z,98590.19
2019-06-20T13:33:46.829Z,98456.79
2019-06-20T13:36:13.983Z,98562.66
2019-06-20T13:38:41.553Z,98586.27
2019-06-20T13:41:10.058Z,98578.02
2019-06-20T13:43:36.858Z,98579.31
2019-06-20T13:46:11.863Z,98307.73
2019-06-20T13:48:40.321Z,98575.92
2019-06-20T13:51:08.072Z,98454.81
2019-06-20T13:53:35.022Z,98590.10
2019-06-20T13:56:01.957Z,98593.38
2019-06-20T13:58:30.094Z,98602.59
2019-06-20T14:00:57.027Z,98596.57
2019-06-20T14:03:24.142Z,98592.47
2019-06-20T14:05:51.719Z,98594.12
2019-06-20T14:08:18.940Z,98590.03
2019-06-20T14:10:46.032Z,98596.09
2019-06-20T14:13:19.131Z,98612.81
2019-06-20T14:15:44.474Z,98583.52
2019-06-20T14:18:12.828Z,98597.64
2019-06-20T14:20:39.654Z,98601.45
2019-06-20T14:23:06.889Z,98607.69
2019-06-20T14:25:34.347Z,98604.86
2019-06-20T14:28:01.976Z,98600.23
2019-06-20T14:30:29.855Z,98581.70
2019-06-20T14:32:57.628Z,98595.94
2019-06-20T14:35:25.534Z,98582.32
2019-06-20T14:37:59.365Z,98571.97
2019-06-20T14:40:27.227Z,98575.47
2019-06-20T14:42:54.398Z,98576.16
2019-06-20T14:45:21.529Z,98571.81
2019-06-20T14:47:48.579Z,98572.34
2019-06-20T14:50:17.688Z,98569.78
2019-06-20T14:52:46.098Z,98560.99
2019-06-20T14:55:13.368Z,98567.77
2019-06-20T14:57:40.433Z,98561.44
2019-06-20T15:00:08.206Z,98566.97
2019-06-20T15:02:38.719Z,98572.28
2019-06-20T15:05:06.539Z,98572.95
2019-06-20T15:07:33.679Z,98581.23
2019-06-20T15:10:00.520Z,98585.83
2019-06-20T15:12:27.338Z,98579.99
2019-06-20T15:14:55.524Z,98572.46
2019-06-20T15:17:22.873Z,98576.98
2019-06-20T15:19:49.756Z,98574.19
2019-06-20T15:22:16.948Z,98570.95
2019-06-20T15:24:45.083Z,98575.77
2019-06-20T15:27:12.428Z,98571.81
2019-06-20T15:29:39.714Z,98565.14
2019-06-20T15:32:06.454Z,98568.70
2019-06-20T15:34:33.324Z,98570.47
2019-06-20T15:37:00.524Z,98557.25
2019-06-20T15:39:27.374Z,98560.29
2019-06-20T15:41:54.353Z,98553.83
2019-06-20T15:44:22.400Z,98564.41
2019-06-20T15:46:50.072Z,98575.77
2019-06-20T15:49:17.099Z,98563.20
2019-06-20T15:51:44.023Z,98443.77
2019-06-20T15:54:11.287Z,98566.22
2019-06-20T15:56:38.162Z,98563.41
2019-06-20T15:59:05.320Z,98566.77
2019-06-20T16:01:32.063Z,98577.32
2019-06-20T16:03:58.880Z,98575.47
2019-06-20T16:06:25.755Z,98564.30
2019-06-20T16:08:53.267Z,98587.59
2019-06-20T16:11:20.099Z,98584.88
2019-06-20T16:13:50.073Z,98585.10
2019-06-20T16:16:15.489Z,98581.26
2019-06-20T16:18:42.721Z,98583.05
2019-06-20T16:21:09.367Z,98590.22
2019-06-20T16:23:36.412Z,98582.58
2019-06-20T16:26:03.482Z,98577.72
2019-06-20T16:28:30.897Z,98578.81
2019-06-20T16:31:08.280Z,98582.28
2019-06-20T16:33:27.483Z,98589.19
2019-06-20T16:35:54.320Z,98595.03
2019-06-20T16:40:57.630Z,98597.52
2019-06-20T16:43:24.484Z,98439.05
2019-06-20T16:45:51.353Z,98595.66
2019-06-20T16:48:18.431Z,98587.67
2019-06-20T16:50:45.564Z,98590.52
2019-06-20T16:53:12.200Z,98590.84
2019-06-20T16:55:38.958Z,98594.80
2019-06-20T16:58:06.870Z,98602.02
2019-06-20T17:00:33.837Z,98603.42
2019-06-20T17:03:00.909Z,98608.89
2019-06-20T17:05:28.198Z,98612.37
2019-06-20T17:07:55.883Z,98611.46
2019-06-20T17:10:23.406Z,98613.31
2019-06-20T17:12:50.334Z,98600.38
2019-06-20T17:15:17.470Z,98600.53
2019-06-20T17:17:44.369Z,98608.98
2019-06-20T17:20:12.828Z,98621.64
2019-06-20T17:22:41.914Z,98623.67
2019-06-20T17:25:10.253Z,98630.59
2019-06-20T17:27:37.548Z,98632.62
2019-06-20T17:30:15.730Z,98649.30
2019-06-20T17:32:42.554Z,98642.13
2019-06-20T17:35:10.363Z,98646.98
2019-06-20T17:37:37.829Z,98642.22
2019-06-20T17:40:08.080Z,98645.46
2019-06-20T17:42:34.961Z,98646.67
2019-06-20T17:45:03.077Z,98651.47
2019-06-20T17:47:30.783Z,98658.07
2019-06-20T17:49:58.822Z,98651.33
2019-06-20T17:52:25.620Z,98659.53
2019-06-20T17:54:53.780Z,98657.20
2019-06-20T17:57:21.238Z,98654.72
2019-06-20T17:59:48.824Z,98666.76
2019-06-20T18:02:15.543Z,98648.52
2019-06-20T18:04:42.672Z,98658.77
2019-06-20T18:07:09.444Z,98676.06
2019-06-20T18:09:36.395Z,98656.64
2019-06-20T18:12:03.708Z,98669.02
2019-06-20T18:14:33.909Z,98686.05
2019-06-20T18:16:59.321Z,98728.94
2019-06-20T18:19:26.327Z,98725.94
2019-06-20T18:21:53.626Z,98735.72
2019-06-20T18:24:20.239Z,98764.72
2019-06-20T18:26:47.118Z,98758.00
2019-06-20T18:29:14.163Z,98747.78
2019-06-20T18:31:42.422Z,98741.83
2019-06-20T18:34:09.942Z,98722.38
2019-06-20T18:36:36.737Z,98720.50
2019-06-20T18:39:08.243Z,98711.05
2019-06-20T18:41:35.273Z,98697.55
2019-06-20T18:44:02.554Z,98704.05
2019-06-20T18:46:30.128Z,98705.93
2019-06-20T18:48:57.888Z,98712.44
2019-06-20T18:51:25.168Z,98711.59
2019-06-20T18:53:52.570Z,98713.10
2019-06-20T18:56:19.512Z,98716.36
2019-06-20T18:58:46.554Z,98718.02
2019-06-20T19:01:13.380Z,98721.58
2019-06-20T19:03:40.877Z,98739.32
2019-06-20T19:06:08.170Z,98745.59
2019-06-20T19:08:34.989Z,98758.02
2019-06-20T19:11:02.737Z,98753.36
2019-06-20T19:13:30.410Z,98764.69
2019-06-20T19:15:57.559Z,98779.30
2019-06-20T19:18:25.014Z,98775.77
2019-06-20T19:20:51.919Z,98785.38
2019-06-20T19:23:19.448Z,98789.63
2019-06-20T19:25:46.924Z,98798.49
2019-06-20T19:28:13.717Z,98796.81
2019-06-20T19:30:46.691Z,98797.98
2019-06-20T19:33:14.741Z,98803.30
2019-06-20T19:35:41.611Z,98816.67
2019-06-20T19:38:08.762Z,98814.85
2019-06-20T19:40:39.251Z,98818.16
2019-06-20T19:43:06.901Z,98829.83
2019-06-20T19:45:33.501Z,98837.25
2019-06-20T19:48:00.432Z,98839.13
2019-06-20T19:50:28.309Z,98842.41
2019-06-20T19:52:55.771Z,98841.25
2019-06-20T19:55:22.750Z,98850.61
2019-06-20T19:57:50.330Z,98854.44
2019-06-20T20:00:17.590Z,98854.61
2019-06-20T20:02:44.541Z,98855.60
2019-06-20T20:05:19.004Z,98857.48
2019-06-20T20:07:42.128Z,98868.28
2019-06-20T20:10:10.006Z,98860.02
2019-06-20T20:12:37.464Z,98856.38
2019-06-20T20:15:07.669Z,98851.97
2019-06-20T20:17:34.394Z,98855.81
2019-06-20T20:20:01.561Z,98854.52
2019-06-20T20:22:29.177Z,98848.45
2019-06-20T20:24:56.332Z,98862.27
2019-06-20T20:27:23.551Z,98861.66
2019-06-20T20:29:50.965Z,98860.37
2019-06-20T20:32:18.617Z,98869.95
2019-06-20T20:34:45.798Z,98862.88
2019-06-20T20:37:12.677Z,98865.19
2019-06-20T20:39:40.492Z,98855.54
2019-06-20T20:42:07.410Z,98860.66
2019-06-20T20:44:34.245Z,98853.72
2019-06-20T20:47:01.270Z,98856.97
2019-06-20T20:49:27.935Z,98866.14
2019-06-20T20:51:54.731Z,98866.16
2019-06-20T20:54:22.245Z,98857.67
2019-06-20T20:56:49.631Z,98672.45
2019-06-20T20:59:17.462Z,98863.24
2019-06-20T21:01:44.494Z,98853.38
2019-06-20T21:04:11.606Z,98861.21
2019-06-20T21:06:38.734Z,98864.78
2019-06-20T21:09:06.576Z,98866.97
2019-06-20T21:11:34.248Z,98863.83
2019-06-20T21:14:02.121Z,98874.67
2019-06-20T21:16:29.518Z,98867.50
2019-06-20T21:18:57.395Z,98878.34
2019-06-20T21:21:24.974Z,98880.06
2019-06-20T21:23:51.800Z,98893.20
2019-06-20T21:26:19.184Z,98890.80
2019-06-20T21:28:46.994Z,98889.94
2019-06-20T21:31:14.347Z,98886.03
2019-06-20T21:33:41.179Z,98691.16
2019-06-20T21:36:09.397Z,98880.70
2019-06-20T21:38:37.007Z,98885.92
2019-06-20T21:41:03.963Z,98879.28
2019-06-20T21:43:30.656Z,98884.38
2019-06-20T21:45:57.686Z,98879.17
2019-06-20T21:48:24.412Z,98880.11
2019-06-20T21:50:51.141Z,98888.09
2019-06-20T21:53:18.674Z,98886.34
2019-06-20T21:55:46.791Z,98894.23
2019-06-20T21:58:13.608Z,98896.95
2019-06-20T22:00:45.191Z,98899.38
2019-06-20T22:03:12.472Z,98901.33
2019-06-20T22:05:39.341Z,98903.04
2019-06-20T22:08:06.271Z,98903.58
2019-06-20T22:10:34.517Z,98899.80
2019-06-20T22:13:01.142Z,98902.14
2019-06-20T22:15:28.462Z,98900.94
2019-06-20T22:17:55.705Z,98909.80
2019-06-20T22:20:22.746Z,98913.81
2019-06-20T22:22:49.574Z,98922.27
2019-06-20T22:25:17.322Z,98931.76
2019-06-20T22:27:44.717Z,98935.01
2019-06-20T22:30:12.451Z,98938.23
2019-06-20T22:32:40.121Z,98943.86
2019-06-20T22:35:08.023Z,98949.92
2019-06-20T22:37:34.971Z,98933.33
2019-06-20T22:40:04.782Z,98941.34
2019-06-20T22:42:32.126Z,98938.92
2019-06-20T22:44:59.759Z,98956.25
2019-06-20T22:47:27.539Z,98959.70
2019-06-20T22:49:54.354Z,98899.34
2019-06-20T22:52:21.726Z,98958.89
2019-06-20T22:54:49.407Z,98952.05
2019-06-20T22:57:17.228Z,98957.44
2019-06-20T22:59:46.576Z,98962.48
2019-06-20T23:02:13.523Z,98968.47
2019-06-20T23:04:40.754Z,98976.45
2019-06-20T23:07:08.312Z,98973.94
2019-06-20T23:09:36.192Z,98980.09
2019-06-20T23:12:04.036Z,98986.36
2019-06-20T23:14:31.972Z,98994.80
2019-06-20T23:16:58.683Z,98993.69
2019-06-20T23:19:26.512Z,98994.11
2019-06-20T23:21:53.946Z,98988.74
2019-06-20T23:24:21.932Z,98994.02
2019-06-20T23:26:49.824Z,98993.67
2019-06-20T23:29:23.535Z,98992.77
2019-06-20T23:31:53.280Z,98994.70
2019-06-20T23:34:21.160Z,98991.02
2019-06-20T23:36:48.679Z,98994.25
2019-06-20T23:39:17.126Z,98992.07
2019-06-20T23:41:44.642Z,98994.01
2019-06-20T23:44:12.452Z,98997.45
2019-06-20T23:46:39.996Z,98955.95
2019-06-20T23:49:07.737Z,99006.95
2019-06-20T23:51:45.717Z,98999.05
2019-06-20T23:54:13.737Z,99001.75
2019-06-20T23:56:40.952Z,99007.23
2019-06-20T23:59:08.698Z,98994.72
